createdAt,value
2017-05-19T00:00:05.378Z,68.00
2017-05-19T00:02:33.666Z,68.00
2017-05-19T00:05:02.664Z,68.00
2017-05-19T00:07:31.660Z,68.00
2017-05-19T00:09:59.887Z,68.00
2017-05-19T00:12:28.120Z,68.00
2017-05-19T00:14:56.364Z,68.00
2017-05-19T00:17:24.624Z,68.00
2017-05-19T00:19:52.926Z,68.00
2017-05-19T00:22:21.902Z,68.00
2017-05-19T00:24:50.195Z,67.90
2017-05-19T00:27:19.194Z,67.90
2017-05-19T00:29:47.594Z,68.00
2017-05-19T00:32:15.839Z,68.00
2017-05-19T00:34:44.839Z,68.00
2017-05-19T00:37:13.831Z,68.00
2017-05-19T00:39:42.923Z,67.90
2017-05-19T00:42:11.897Z,67.90
2017-05-19T00:44:40.163Z,67.90
2017-05-19T00:47:08.472Z,68.00
2017-05-19T00:49:37.477Z,67.90
2017-05-19T00:52:05.767Z,68.00
2017-05-19T00:54:34.025Z,68.00
2017-05-19T00:57:03.032Z,67.90
2017-05-19T00:59:39.549Z,67.90
2017-05-19T01:02:07.865Z,67.90
2017-05-19T01:04:36.847Z,67.90
2017-05-19T01:07:05.971Z,67.90
2017-05-19T01:09:34.258Z,67.90
2017-05-19T01:12:02.487Z,68.00
2017-05-19T01:14:30.773Z,68.00
2017-05-19T01:16:59.781Z,67.90
2017-05-19T01:19:28.759Z,67.90
2017-05-19T01:21:57.760Z,67.90
2017-05-19T01:24:26.750Z,67.90
2017-05-19T01:26:55.036Z,68.00
2017-05-19T01:29:23.276Z,68.40
2017-05-19T01:31:51.596Z,67.90
2017-05-19T01:34:19.844Z,67.90
2017-05-19T01:36:48.128Z,67.90
2017-05-19T01:39:17.126Z,67.90
2017-05-19T01:41:46.119Z,67.90
2017-05-19T01:44:15.113Z,67.90
2017-05-19T01:46:44.115Z,67.90
2017-05-19T01:49:12.487Z,68.00
2017-05-19T01:51:41.477Z,67.90
2017-05-19T01:54:10.475Z,67.90
2017-05-19T01:56:39.580Z,67.90
2017-05-19T01:59:07.832Z,68.00
2017-05-19T02:01:36.832Z,68.40
2017-05-19T02:04:05.819Z,67.90
2017-05-19T02:06:34.808Z,67.90
2017-05-19T02:09:03.033Z,68.00
2017-05-19T02:11:31.268Z,67.90
2017-05-19T02:14:00.235Z,67.90
2017-05-19T02:16:28.485Z,68.00
2017-05-19T02:18:56.712Z,68.00
2017-05-19T02:21:25.686Z,67.90
2017-05-19T02:23:53.985Z,67.90
2017-05-19T02:26:22.988Z,67.90
2017-05-19T02:28:51.256Z,67.90
2017-05-19T02:31:19.545Z,68.40
2017-05-19T02:33:47.816Z,68.00
2017-05-19T02:36:16.104Z,67.90
2017-05-19T02:38:44.363Z,67.90
2017-05-19T02:41:13.331Z,67.90
2017-05-19T02:43:41.598Z,68.00
2017-05-19T02:46:09.904Z,68.00
2017-05-19T02:48:38.892Z,67.90
2017-05-19T02:51:07.897Z,67.90
2017-05-19T02:53:36.987Z,67.90
2017-05-19T02:56:05.948Z,67.90
2017-05-19T02:58:34.265Z,67.90
2017-05-19T03:01:02.540Z,67.90
2017-05-19T03:03:31.516Z,67.90
2017-05-19T03:06:00.492Z,67.90
2017-05-19T03:08:28.793Z,67.90
2017-05-19T03:10:57.072Z,67.90
2017-05-19T03:13:26.048Z,68.00
2017-05-19T03:15:54.341Z,67.90
2017-05-19T03:18:23.325Z,67.90
2017-05-19T03:20:52.348Z,67.60
2017-05-19T03:23:20.603Z,67.90
2017-05-19T03:25:49.571Z,67.90
2017-05-19T03:28:17.801Z,67.90
2017-05-19T03:30:46.039Z,67.90
2017-05-19T03:33:15.148Z,67.90
2017-05-19T03:35:44.131Z,67.90
2017-05-19T03:38:13.124Z,68.00
2017-05-19T03:40:42.100Z,67.90
2017-05-19T03:43:10.328Z,68.00
2017-05-19T03:45:38.676Z,68.00
2017-05-19T03:48:07.656Z,68.00
2017-05-19T03:50:35.976Z,68.00
2017-05-19T03:53:04.319Z,68.00
2017-05-19T03:55:33.285Z,67.90
2017-05-19T03:58:01.597Z,68.00
2017-05-19T04:00:30.583Z,68.00
2017-05-19T04:02:59.561Z,68.00
2017-05-19T04:05:27.859Z,68.00
2017-05-19T04:07:57.042Z,68.00
2017-05-19T04:10:25.274Z,68.00
2017-05-19T04:12:53.516Z,68.00
2017-05-19T04:15:21.773Z,68.00
2017-05-19T04:17:50.739Z,68.00
2017-05-19T04:20:19.045Z,68.00
2017-05-19T04:22:48.044Z,68.00
2017-05-19T04:25:17.052Z,68.00
2017-05-19T04:27:45.330Z,68.00
2017-05-19T04:30:13.793Z,68.00
2017-05-19T04:32:42.792Z,68.00
2017-05-19T04:35:12.236Z,68.00
2017-05-19T04:37:40.500Z,68.00
2017-05-19T04:40:08.724Z,68.00
2017-05-19T04:42:36.966Z,68.00
2017-05-19T04:45:06.332Z,67.90
2017-05-19T04:47:34.620Z,67.90
2017-05-19T04:50:02.871Z,67.90
2017-05-19T04:52:31.876Z,67.90
2017-05-19T04:55:00.146Z,68.00
2017-05-19T04:57:29.133Z,67.90
2017-05-19T04:59:58.120Z,67.90
2017-05-19T05:02:33.243Z,67.90
2017-05-19T05:05:01.475Z,67.90
2017-05-19T05:07:29.824Z,67.90
2017-05-19T05:09:58.911Z,67.90
2017-05-19T05:12:27.880Z,67.90
2017-05-19T05:14:56.181Z,67.90
2017-05-19T05:17:25.181Z,67.90
2017-05-19T05:19:54.172Z,67.90
2017-05-19T05:22:23.140Z,68.00
2017-05-19T05:24:51.437Z,67.90
2017-05-19T05:27:20.404Z,67.90
2017-05-19T05:29:48.657Z,67.90
2017-05-19T05:32:36.784Z,67.90
2017-05-19T05:35:05.479Z,67.90
2017-05-19T05:37:33.908Z,67.90
2017-05-19T05:40:02.903Z,67.90
2017-05-19T05:42:31.894Z,67.90
2017-05-19T05:45:40.776Z,68.00
2017-05-19T05:48:09.016Z,67.90
2017-05-19T05:50:37.284Z,67.90
2017-05-19T05:53:05.558Z,68.30
2017-05-19T05:55:33.826Z,68.00
2017-05-19T05:58:02.093Z,68.00
2017-05-19T06:00:30.380Z,68.00
2017-05-19T06:02:58.668Z,68.00
2017-05-19T06:05:27.497Z,68.00
2017-05-19T06:07:55.724Z,67.90
2017-05-19T06:10:23.992Z,67.90
2017-05-19T06:12:52.280Z,67.90
2017-05-19T06:15:20.556Z,67.90
2017-05-19T06:17:48.788Z,67.90
2017-05-19T06:20:17.035Z,67.90
2017-05-19T06:22:45.266Z,67.90
2017-05-19T06:25:13.557Z,68.00
2017-05-19T06:27:41.838Z,67.90
2017-05-19T06:30:10.122Z,67.90
2017-05-19T06:32:38.398Z,68.00
2017-05-19T06:35:07.017Z,68.00
2017-05-19T06:37:35.348Z,68.00
2017-05-19T06:40:03.591Z,68.00
2017-05-19T06:42:31.844Z,68.00
2017-05-19T06:45:00.169Z,68.00
2017-05-19T06:47:28.450Z,68.00
2017-05-19T06:49:56.732Z,68.00
2017-05-19T06:52:25.004Z,68.00
2017-05-19T06:54:53.261Z,68.20
2017-05-19T06:57:21.577Z,68.00
2017-05-19T06:59:49.839Z,68.00
2017-05-19T07:02:18.113Z,68.00
2017-05-19T07:04:46.396Z,67.90
2017-05-19T07:07:14.641Z,67.60
2017-05-19T07:09:43.171Z,67.90
2017-05-19T07:12:11.428Z,67.90
2017-05-19T07:14:39.662Z,67.80
2017-05-19T07:17:07.976Z,68.20
2017-05-19T07:19:36.243Z,67.80
2017-05-19T07:22:04.529Z,67.80
2017-05-19T07:24:32.805Z,67.90
2017-05-19T07:27:01.064Z,67.90
2017-05-19T07:29:29.373Z,68.00
2017-05-19T07:31:57.935Z,68.00
2017-05-19T07:34:26.225Z,68.00
2017-05-19T07:36:54.510Z,68.00
2017-05-19T07:39:22.873Z,68.20
2017-05-19T07:41:51.114Z,68.40
2017-05-19T07:44:19.423Z,68.00
2017-05-19T07:46:47.712Z,68.00
2017-05-19T07:49:15.996Z,68.20
2017-05-19T07:51:44.255Z,68.00
2017-05-19T07:54:12.531Z,68.30
2017-05-19T07:56:40.773Z,68.20
2017-05-19T07:59:09.129Z,68.10
2017-05-19T08:01:37.411Z,68.10
2017-05-19T08:04:05.731Z,68.10
2017-05-19T08:06:33.984Z,68.50
2017-05-19T08:09:02.310Z,68.00
2017-05-19T08:11:30.564Z,68.10
2017-05-19T08:14:04.985Z,68.20
2017-05-19T08:16:33.266Z,68.20
2017-05-19T08:19:01.503Z,68.20
2017-05-19T08:21:29.820Z,68.20
2017-05-19T08:23:58.090Z,68.50
2017-05-19T08:26:26.367Z,68.10
2017-05-19T08:28:54.615Z,68.10
2017-05-19T08:31:22.851Z,68.10
2017-05-19T08:33:51.092Z,68.20
2017-05-19T08:36:19.423Z,68.10
2017-05-19T08:38:47.745Z,68.10
2017-05-19T08:41:16.033Z,68.10
2017-05-19T08:43:44.277Z,68.10
2017-05-19T08:46:12.527Z,68.10
2017-05-19T08:48:40.755Z,68.10
2017-05-19T08:51:09.027Z,68.00
2017-05-19T08:53:37.253Z,68.00
2017-05-19T08:56:05.492Z,68.00
2017-05-19T08:58:33.770Z,67.80
2017-05-19T09:01:02.029Z,67.80
2017-05-19T09:03:30.305Z,67.80
2017-05-19T09:05:58.556Z,67.80
2017-05-19T09:08:26.859Z,67.80
2017-05-19T09:10:55.141Z,67.80
2017-05-19T09:13:23.421Z,67.80
2017-05-19T09:15:51.651Z,67.70
2017-05-19T09:18:19.904Z,67.80
2017-05-19T09:20:48.132Z,67.80
2017-05-19T09:23:16.516Z,67.80
2017-05-19T09:25:44.791Z,67.80
2017-05-19T09:28:13.077Z,67.80
2017-05-19T09:30:41.332Z,67.80
2017-05-19T09:33:09.620Z,67.80
2017-05-19T09:35:37.903Z,67.90
2017-05-19T09:38:06.146Z,67.90
2017-05-19T09:40:34.399Z,68.00
2017-05-19T09:43:02.740Z,68.00
2017-05-19T09:45:31.021Z,68.00
2017-05-19T09:48:03.688Z,68.10
2017-05-19T09:50:31.965Z,68.00
2017-05-19T09:53:00.194Z,67.90
2017-05-19T09:55:28.515Z,67.90
2017-05-19T09:57:56.768Z,68.00
2017-05-19T10:00:25.017Z,68.00
2017-05-19T10:02:53.272Z,68.00
2017-05-19T10:05:22.269Z,68.00
2017-05-19T10:07:50.507Z,68.00
2017-05-19T10:10:18.843Z,68.00
2017-05-19T10:12:47.118Z,68.00
2017-05-19T10:15:15.465Z,68.00
2017-05-19T10:17:43.713Z,68.00
2017-05-19T10:20:11.960Z,67.90
2017-05-19T10:22:40.205Z,67.90
2017-05-19T10:25:08.540Z,67.80
2017-05-19T10:27:36.847Z,67.90
2017-05-19T10:30:05.117Z,67.70
2017-05-19T10:32:33.384Z,67.90
2017-05-19T10:35:01.644Z,67.80
2017-05-19T10:37:29.945Z,67.80
2017-05-19T10:39:58.199Z,67.80
2017-05-19T10:42:26.453Z,67.80
2017-05-19T10:44:54.708Z,67.70
2017-05-19T10:47:22.961Z,67.80
2017-05-19T10:49:51.208Z,67.70
2017-05-19T10:52:19.492Z,67.70
2017-05-19T10:54:47.850Z,67.80
2017-05-19T10:57:16.135Z,67.70
2017-05-19T10:59:44.424Z,67.70
2017-05-19T11:02:12.714Z,67.80
2017-05-19T11:04:40.974Z,67.80
2017-05-19T11:07:09.284Z,67.90
2017-05-19T11:09:37.624Z,67.90
2017-05-19T11:12:05.896Z,67.80
2017-05-19T11:14:34.177Z,67.80
2017-05-19T11:17:02.430Z,67.80
2017-05-19T11:19:30.755Z,68.00
2017-05-19T11:21:58.996Z,67.90
2017-05-19T11:24:27.300Z,67.90
2017-05-19T11:26:55.705Z,67.90
2017-05-19T11:29:30.536Z,67.90
2017-05-19T11:31:58.806Z,67.90
2017-05-19T11:34:27.035Z,67.90
2017-05-19T11:36:55.332Z,67.90
2017-05-19T11:39:23.570Z,67.90
2017-05-19T11:41:51.867Z,67.90
2017-05-19T11:44:20.253Z,67.90
2017-05-19T11:46:48.524Z,67.90
2017-05-19T11:49:16.772Z,67.80
2017-05-19T11:51:45.092Z,67.80
2017-05-19T11:54:13.468Z,67.80
2017-05-19T11:56:41.754Z,67.90
2017-05-19T11:59:10.012Z,67.90
2017-05-19T12:01:38.283Z,67.90
2017-05-19T12:04:06.565Z,67.90
2017-05-19T12:06:34.801Z,68.00
2017-05-19T12:09:03.057Z,68.00
2017-05-19T12:11:41.577Z,68.00
2017-05-19T12:14:09.912Z,68.00
2017-05-19T12:16:38.195Z,68.10
2017-05-19T12:19:06.469Z,68.10
2017-05-19T12:21:34.737Z,68.00
2017-05-19T12:24:02.988Z,68.00
2017-05-19T12:26:31.288Z,68.00
2017-05-19T12:28:59.559Z,68.00
2017-05-19T12:31:27.863Z,68.00
2017-05-19T12:33:56.092Z,68.00
2017-05-19T12:36:24.337Z,68.10
2017-05-19T12:38:52.675Z,68.00
2017-05-19T12:41:20.952Z,68.00
2017-05-19T12:43:49.221Z,68.00
2017-05-19T12:46:17.468Z,68.00
2017-05-19T12:48:45.811Z,68.00
2017-05-19T12:51:14.171Z,67.90
2017-05-19T12:53:42.420Z,67.90
2017-05-19T12:56:10.684Z,67.90
2017-05-19T12:58:38.993Z,67.90
2017-05-19T13:04:01.121Z,67.90
2017-05-19T13:06:29.416Z,67.90
2017-05-19T13:08:57.706Z,67.90
2017-05-19T13:11:25.986Z,67.90
2017-05-19T13:14:00.403Z,67.90
2017-05-19T13:16:28.773Z,67.80
2017-05-19T13:18:57.044Z,67.90
2017-05-19T13:21:25.284Z,67.80
2017-05-19T13:23:53.608Z,67.90
2017-05-19T13:26:21.871Z,68.00
2017-05-19T13:28:50.124Z,67.90
2017-05-19T13:31:18.427Z,67.90
2017-05-19T13:33:46.750Z,68.00
2017-05-19T13:36:15.099Z,67.80
2017-05-19T13:38:43.357Z,67.90
2017-05-19T13:41:11.622Z,68.00
2017-05-19T13:43:39.848Z,67.90
2017-05-19T13:46:08.192Z,67.90
2017-05-19T13:48:36.456Z,68.00
2017-05-19T13:51:04.708Z,68.00
2017-05-19T13:53:33.027Z,67.90
2017-05-19T13:56:01.287Z,68.00
2017-05-19T13:58:29.583Z,68.10
2017-05-19T14:01:11.164Z,68.10
2017-05-19T14:03:39.436Z,68.30
2017-05-19T14:06:07.807Z,68.00
2017-05-19T14:08:36.096Z,67.90
2017-05-19T14:11:04.368Z,67.80
2017-05-19T14:13:32.641Z,67.90
2017-05-19T14:16:00.928Z,67.90
2017-05-19T14:18:29.205Z,68.00
2017-05-19T14:20:57.430Z,68.00
2017-05-19T14:23:25.682Z,68.00
2017-05-19T14:25:53.925Z,67.90
2017-05-19T14:28:21.481Z,67.90
2017-05-19T14:30:49.758Z,68.00
2017-05-19T14:33:17.999Z,68.00
2017-05-19T14:35:46.312Z,68.00
2017-05-19T14:38:14.630Z,68.00
2017-05-19T14:40:42.974Z,68.00
2017-05-19T14:43:11.211Z,68.00
2017-05-19T14:45:39.457Z,67.80
2017-05-19T14:48:07.800Z,67.90
2017-05-19T14:50:36.083Z,67.90
2017-05-19T14:53:04.343Z,68.00
2017-05-19T14:55:32.575Z,67.90
2017-05-19T14:58:00.900Z,67.80
2017-05-19T15:00:29.184Z,67.90
2017-05-19T15:02:57.552Z,67.80
2017-05-19T15:05:25.796Z,67.80
2017-05-19T15:07:54.148Z,67.80
2017-05-19T15:10:22.392Z,67.80
2017-05-19T15:12:50.777Z,67.90
2017-05-19T15:15:19.023Z,67.80
2017-05-19T15:17:47.316Z,67.90
2017-05-19T15:20:15.604Z,67.80
2017-05-19T15:22:43.862Z,67.90
2017-05-19T15:25:12.125Z,67.90
2017-05-19T15:27:40.431Z,67.90
2017-05-19T15:30:08.714Z,65.60
2017-05-19T15:35:30.580Z,66.10
2017-05-19T15:37:58.921Z,66.10
2017-05-19T15:40:27.164Z,65.80
2017-05-19T15:42:55.461Z,66.00
2017-05-19T15:45:23.751Z,66.00
2017-05-19T15:47:51.994Z,65.90
2017-05-19T15:50:20.237Z,65.80
2017-05-19T15:52:48.600Z,66.00
2017-05-19T15:55:16.963Z,66.00
2017-05-19T15:57:45.220Z,65.90
2017-05-19T16:00:13.509Z,65.90
2017-05-19T16:02:41.781Z,65.90
2017-05-19T16:05:11.180Z,65.90
2017-05-19T16:07:39.566Z,65.90
2017-05-19T16:10:07.848Z,65.90
2017-05-19T16:12:36.091Z,65.90
2017-05-19T16:15:04.393Z,65.90
2017-05-19T16:17:32.625Z,65.90
2017-05-19T16:20:00.942Z,66.00
2017-05-19T16:22:32.875Z,66.10
2017-05-19T16:25:01.132Z,66.00
2017-05-19T16:27:29.428Z,66.10
2017-05-19T16:29:57.747Z,66.10
2017-05-19T16:32:26.004Z,66.20
2017-05-19T16:34:54.271Z,66.20
2017-05-19T16:37:22.569Z,66.10
2017-05-19T16:39:50.847Z,66.20
2017-05-19T16:42:19.123Z,66.30
2017-05-19T16:44:47.406Z,66.20
2017-05-19T16:47:15.696Z,66.20
2017-05-19T16:49:43.940Z,66.30
2017-05-19T16:52:12.242Z,66.30
2017-05-19T16:54:50.276Z,66.30
2017-05-19T16:57:18.532Z,66.30
2017-05-19T16:59:46.783Z,66.30
2017-05-19T17:02:21.204Z,66.30
2017-05-19T17:04:49.487Z,66.30
2017-05-19T17:07:17.724Z,66.40
2017-05-19T17:09:46.036Z,66.30
2017-05-19T17:12:14.316Z,66.30
2017-05-19T17:14:42.583Z,66.20
2017-05-19T17:17:10.883Z,66.60
2017-05-19T17:19:39.120Z,66.30
2017-05-19T17:22:07.427Z,66.30
2017-05-19T17:24:35.692Z,66.30
2017-05-19T17:27:03.963Z,66.20
2017-05-19T17:29:32.243Z,66.20
2017-05-19T17:32:00.504Z,66.20
2017-05-19T17:34:28.800Z,66.20
2017-05-19T17:36:57.079Z,66.20
2017-05-19T17:39:25.344Z,66.70
2017-05-19T17:41:53.603Z,66.20
2017-05-19T17:44:21.892Z,66.20
2017-05-19T17:46:50.198Z,66.30
2017-05-19T17:49:18.597Z,66.30
2017-05-19T17:51:46.839Z,66.30
2017-05-19T17:54:15.108Z,66.30
2017-05-19T17:56:43.356Z,66.30
2017-05-19T17:59:11.627Z,65.60
2017-05-19T18:01:39.942Z,66.00
2017-05-19T18:04:08.226Z,66.20
2017-05-19T18:06:36.475Z,65.80
2017-05-19T18:09:04.709Z,65.90
2017-05-19T18:11:32.956Z,65.80
2017-05-19T18:14:01.223Z,66.10
2017-05-19T18:16:29.496Z,66.10
2017-05-19T18:19:04.636Z,66.10
2017-05-19T18:21:32.883Z,66.50
2017-05-19T18:24:01.190Z,66.20
2017-05-19T18:26:29.435Z,66.30
2017-05-19T18:28:57.739Z,66.30
2017-05-19T18:31:26.028Z,66.40
2017-05-19T18:33:54.291Z,66.40
2017-05-19T18:36:22.593Z,66.30
2017-05-19T18:38:50.854Z,66.50
2017-05-19T18:41:19.082Z,66.50
2017-05-19T18:43:47.397Z,66.50
2017-05-19T18:46:15.660Z,66.50
2017-05-19T18:48:44.065Z,67.00
2017-05-19T18:51:12.327Z,66.60
2017-05-19T18:53:40.603Z,66.50
2017-05-19T18:56:08.912Z,67.00
2017-05-19T18:58:37.261Z,66.50
2017-05-19T19:01:05.539Z,67.10
2017-05-19T19:03:33.791Z,66.50
2017-05-19T19:06:02.097Z,66.50
2017-05-19T19:08:30.377Z,66.50
2017-05-19T19:10:58.681Z,66.60
2017-05-19T19:13:26.915Z,66.60
2017-05-19T19:15:55.171Z,66.60
2017-05-19T19:18:23.421Z,66.60
2017-05-19T19:20:51.763Z,66.60
2017-05-19T19:23:20.032Z,66.70
2017-05-19T19:25:48.267Z,67.10
2017-05-19T19:28:16.568Z,66.60
2017-05-19T19:30:44.836Z,66.60
2017-05-19T19:33:13.127Z,66.70
2017-05-19T19:35:41.395Z,66.70
2017-05-19T19:38:09.675Z,66.60
2017-05-19T19:40:37.939Z,66.70
2017-05-19T19:43:06.236Z,66.60
2017-05-19T19:45:34.531Z,66.70
2017-05-19T19:48:02.789Z,66.70
2017-05-19T19:50:31.064Z,66.60
2017-05-19T19:52:59.329Z,67.10
2017-05-19T19:55:27.615Z,66.70
2017-05-19T19:57:55.967Z,66.60
2017-05-19T20:00:24.288Z,66.60
2017-05-19T20:02:52.657Z,66.70
2017-05-19T20:05:20.929Z,66.70
2017-05-19T20:07:49.172Z,66.70
2017-05-19T20:10:17.399Z,66.70
2017-05-19T20:12:45.639Z,66.70
2017-05-19T20:15:13.877Z,66.70
2017-05-19T20:17:42.221Z,66.70
2017-05-19T20:20:10.480Z,66.60
2017-05-19T20:22:38.770Z,66.60
2017-05-19T20:25:07.036Z,67.10
2017-05-19T20:27:35.272Z,66.60
2017-05-19T20:30:03.599Z,66.70
2017-05-19T20:32:31.869Z,66.60
2017-05-19T20:35:00.247Z,66.60
2017-05-19T20:37:28.483Z,66.70
2017-05-19T20:39:56.749Z,66.70
2017-05-19T20:42:25.071Z,66.60
2017-05-19T20:44:53.323Z,66.60
2017-05-19T20:47:21.579Z,66.60
2017-05-19T20:49:49.829Z,66.70
2017-05-19T20:52:18.091Z,66.60
2017-05-19T20:54:46.330Z,66.60
2017-05-19T20:57:14.560Z,66.60
2017-05-19T20:59:42.814Z,66.60
2017-05-19T21:02:11.061Z,66.60
2017-05-19T21:04:39.321Z,66.60
2017-05-19T21:07:07.552Z,66.60
2017-05-19T21:09:35.799Z,66.60
2017-05-19T21:12:04.023Z,66.60
2017-05-19T21:14:32.269Z,66.60
2017-05-19T21:17:00.524Z,66.60
2017-05-19T21:19:28.809Z,66.50
2017-05-19T21:21:57.059Z,66.50
2017-05-19T21:24:25.355Z,66.50
2017-05-19T21:26:53.607Z,66.60
2017-05-19T21:29:21.839Z,66.60
2017-05-19T21:31:50.085Z,66.50
2017-05-19T21:34:18.359Z,66.60
2017-05-19T21:36:46.737Z,66.50
2017-05-19T21:39:14.976Z,66.50
2017-05-19T21:41:43.291Z,66.60
2017-05-19T21:44:11.571Z,66.60
2017-05-19T21:46:39.817Z,66.50
2017-05-19T21:49:08.072Z,66.50
2017-05-19T21:51:36.397Z,66.60
2017-05-19T21:54:04.673Z,66.60
2017-05-19T21:56:32.943Z,66.60
2017-05-19T21:59:01.226Z,66.50
2017-05-19T22:01:29.508Z,66.60
2017-05-19T22:03:57.772Z,66.60
2017-05-19T22:06:26.055Z,66.60
2017-05-19T22:08:54.344Z,66.60
2017-05-19T22:11:22.584Z,66.60
2017-05-19T22:13:50.852Z,66.50
2017-05-19T22:16:19.166Z,66.50
2017-05-19T22:18:47.441Z,66.50
2017-05-19T22:21:15.711Z,66.50
2017-05-19T22:23:43.988Z,66.50
2017-05-19T22:26:12.264Z,66.40
2017-05-19T22:28:40.495Z,66.40
2017-05-19T22:31:08.737Z,66.40
2017-05-19T22:33:36.998Z,66.40
2017-05-19T22:36:05.283Z,66.30
2017-05-19T22:38:33.551Z,66.40
2017-05-19T22:41:01.926Z,66.80
2017-05-19T22:43:30.199Z,66.40
2017-05-19T22:45:58.450Z,66.50
2017-05-19T22:48:26.750Z,66.40
2017-05-19T22:50:55.022Z,66.40
2017-05-19T22:53:23.277Z,66.40
2017-05-19T22:55:51.516Z,66.30
2017-05-19T22:58:19.852Z,66.40
2017-05-19T23:00:48.076Z,66.40
2017-05-19T23:03:16.403Z,66.30
2017-05-19T23:05:44.652Z,66.40
2017-05-19T23:08:12.931Z,66.40
2017-05-19T23:10:41.248Z,66.40
2017-05-19T23:13:09.620Z,66.40
2017-05-19T23:15:37.895Z,66.30
2017-05-19T23:18:06.173Z,66.30
2017-05-19T23:20:34.427Z,66.30
2017-05-19T23:23:02.728Z,66.30
2017-05-19T23:25:30.995Z,66.30
2017-05-19T23:27:59.230Z,66.30
2017-05-19T23:30:27.575Z,66.20
2017-05-19T23:32:55.815Z,66.20
2017-05-19T23:35:24.315Z,66.20
2017-05-19T23:37:53.491Z,66.40
2017-05-19T23:40:21.791Z,66.20
2017-05-19T23:42:50.060Z,66.20
2017-05-19T23:45:31.763Z,66.20
2017-05-19T23:48:00.021Z,66.20
2017-05-19T23:50:28.305Z,66.20
2017-05-19T23:52:56.588Z,66.20
2017-05-19T23:55:24.872Z,66.20
2017-05-19T23:57:53.182Z,66.10
